Time,TemperatureF,DewpointF,PressureIn,WindDirection,WindDirectionDegrees,WindSpeedMPH,WindSpeedGustMPH,Humidity,HourlyPrecipIn,Conditions,Clouds,dailyrainin,SoftwareType,DateUTC
2013-01-31 07:01:00,33.0,27.0,30.24,NNE,28,1.0,2.0,79,0.00,,,0.00,,2013-01-31 14:01:00,
2013-01-31 07:11:00,33.0,27.0,30.24,NNE,28,1.0,2.0,79,0.00,,,0.00,,2013-01-31 14:11:00,
2013-01-31 07:21:00,33.0,27.0,30.23,NNE,28,1.0,2.0,79,0.00,,,0.00,,2013-01-31 14:21:00,
2013-01-31 07:31:00,32.0,27.0,30.24,NNE,28,0.0,0.0,80,0.00,,,0.00,,2013-01-31 14:31:00,
2013-01-31 07:41:00,32.0,27.0,30.24,NNE,28,0.0,0.0,80,0.00,,,0.00,,2013-01-31 14:41:00,
2013-01-31 07:52:00,31.0,26.0,30.24,NNE,28,0.0,0.0,83,0.00,,,0.00,,2013-01-31 14:52:00,
2013-01-31 08:02:00,32.0,27.0,30.24,NNE,28,0.0,1.0,83,0.00,,,0.00,,2013-01-31 15:02:00,
2013-01-31 08:11:00,34.0,28.0,30.24,NNE,28,0.0,1.0,80,0.00,,,0.00,,2013-01-31 15:11:00,
2013-01-31 08:21:00,34.0,28.0,30.24,NNE,28,0.0,1.0,80,0.00,,,0.00,,2013-01-31 15:21:00,
2013-01-31 08:31:00,37.0,28.0,30.23,NNE,28,0.0,0.0,71,0.00,,,0.00,,2013-01-31 15:31:00,
2013-01-31 08:42:00,37.0,28.0,30.23,NNE,28,0.0,0.0,71,0.00,,,0.00,,2013-01-31 15:42:00,
2013-01-31 08:52:00,39.0,28.0,30.23,NNE,28,0.0,1.0,65,0.00,,,0.00,,2013-01-31 15:52:00,
2013-01-31 09:02:00,40.0,29.0,30.23,NNE,24,0.0,2.0,64,0.00,,,0.00,,2013-01-31 16:02:00,
2013-01-31 09:11:00,40.0,29.0,30.23,NNE,24,0.0,2.0,64,0.00,,,0.00,,2013-01-31 16:11:00,
2013-01-31 09:21:00,42.0,29.0,30.22,NNE,25,0.0,1.0,59,0.00,,,0.00,,2013-01-31 16:21:00,
2013-01-31 09:32:00,43.0,29.0,30.22,WSW,249,0.0,4.0,58,0.00,,,0.00,,2013-01-31 16:32:00,
2013-01-31 09:41:00,43.0,29.0,30.22,WSW,249,0.0,4.0,58,0.00,,,0.00,,2013-01-31 16:41:00,
2013-01-31 09:52:00,45.0,29.0,30.24,WSW,241,0.0,3.0,53,0.00,,,0.00,,2013-01-31 16:52:00,
2013-01-31 10:01:00,47.0,28.0,30.25,West,265,3.0,5.0,48,0.00,,,0.00,,2013-01-31 17:01:00,
2013-01-31 10:11:00,47.0,28.0,30.25,West,265,3.0,5.0,48,0.00,,,0.00,,2013-01-31 17:11:00,
2013-01-31 10:22:00,49.0,28.0,30.24,WNW,302,3.0,6.0,44,0.00,,,0.00,,2013-01-31 17:22:00,
2013-01-31 10:31:00,50.0,27.0,30.24,West,259,2.0,5.0,41,0.00,,,0.00,,2013-01-31 17:31:00,
2013-01-31 10:42:00,50.0,27.0,30.24,West,259,2.0,5.0,41,0.00,,,0.00,,2013-01-31 17:42:00,
2013-01-31 10:53:00,50.0,25.0,30.24,SW,230,0.0,4.0,38,0.00,,,0.00,,2013-01-31 17:53:00,
2013-01-31 11:02:00,51.0,28.0,30.24,West,273,1.0,3.0,40,0.00,,,0.00,,2013-01-31 18:02:00,
2013-01-31 11:11:00,52.0,27.0,30.24,WSW,245,2.0,5.0,38,0.00,,,0.00,,2013-01-31 18:11:00,
2013-01-31 11:21:00,52.0,27.0,30.24,WSW,245,2.0,5.0,38,0.00,,,0.00,,2013-01-31 18:21:00,
2013-01-31 11:31:00,53.0,27.0,30.23,West,274,1.0,4.0,37,0.00,,,0.00,,2013-01-31 18:31:00,
2013-01-31 11:42:00,53.0,27.0,30.23,West,274,1.0,4.0,37,0.00,,,0.00,,2013-01-31 18:42:00,
2013-01-31 11:52:00,54.0,28.0,30.22,NW,311,2.0,5.0,36,0.00,,,0.00,,2013-01-31 18:52:00,
2013-01-31 12:01:00,55.0,27.0,30.20,West,278,1.0,5.0,34,0.00,,,0.00,,2013-01-31 19:01:00,
2013-01-31 12:11:00,55.0,27.0,30.20,West,278,1.0,5.0,34,0.00,,,0.00,,2013-01-31 19:11:00,
2013-01-31 12:21:00,57.0,28.0,30.20,West,260,3.0,5.0,33,0.00,,,0.00,,2013-01-31 19:21:00,
2013-01-31 12:32:00,58.0,28.0,30.20,West,266,4.0,10.0,32,0.00,,,0.00,,2013-01-31 19:32:00,
2013-01-31 12:42:00,58.0,28.0,30.20,West,266,4.0,10.0,32,0.00,,,0.00,,2013-01-31 19:42:00,
2013-01-31 12:52:00,59.0,29.0,30.20,West,276,5.0,10.0,32,0.00,,,0.00,,2013-01-31 19:52:00,
2013-01-31 13:01:00,60.0,28.0,30.19,WSW,253,5.0,9.0,30,0.00,,,0.00,,2013-01-31 20:01:00,
2013-01-31 13:11:00,60.0,28.0,30.19,WSW,253,5.0,9.0,30,0.00,,,0.00,,2013-01-31 20:11:00,
2013-01-31 13:21:00,59.0,28.0,30.19,West,264,4.0,8.0,31,0.00,,,0.00,,2013-01-31 20:21:00,
2013-01-31 13:31:00,60.0,28.0,30.18,West,259,3.0,7.0,30,0.00,,,0.00,,2013-01-31 20:31:00,
2013-01-31 13:41:00,61.0,29.0,30.15,WSW,256,3.0,7.0,29,0.00,,,0.00,,2013-01-31 20:41:00,
2013-01-31 13:52:00,61.0,29.0,30.15,WSW,256,3.0,7.0,29,0.00,,,0.00,,2013-01-31 20:52:00,
2013-01-31 14:01:00,62.0,29.0,30.15,West,266,3.0,7.0,28,0.00,,,0.00,,2013-01-31 21:01:00,
2013-01-31 14:11:00,62.0,29.0,30.15,SW,228,3.0,7.0,28,0.00,,,0.00,,2013-01-31 21:11:00,
2013-01-31 14:21:00,62.0,29.0,30.15,SW,228,3.0,7.0,28,0.00,,,0.00,,2013-01-31 21:21:00,
2013-01-31 14:31:00,63.0,30.0,30.16,WSW,238,4.0,7.0,29,0.00,,,0.00,,2013-01-31 21:31:00,
2013-01-31 14:42:00,63.0,30.0,30.16,WSW,238,4.0,7.0,29,0.00,,,0.00,,2013-01-31 21:42:00,
2013-01-31 14:51:00,63.0,30.0,30.16,WSW,257,4.0,7.0,29,0.00,,,0.00,,2013-01-31 21:51:00,
2013-01-31 15:02:00,63.0,31.0,30.15,WNW,303,4.0,7.0,30,0.00,,,0.00,,2013-01-31 22:02:00,
2013-01-31 15:11:00,63.0,31.0,30.14,West,276,4.0,8.0,30,0.00,,,0.00,,2013-01-31 22:11:00,
2013-01-31 15:21:00,63.0,31.0,30.14,West,276,4.0,8.0,30,0.00,,,0.00,,2013-01-31 22:21:00,
2013-01-31 15:32:00,63.0,31.0,30.14,West,262,2.0,8.0,30,0.00,,,0.00,,2013-01-31 22:32:00,
2013-01-31 15:42:00,63.0,31.0,30.14,West,262,2.0,8.0,30,0.00,,,0.00,,2013-01-31 22:42:00,
2013-01-31 15:52:00,62.0,32.0,30.15,WSW,240,2.0,6.0,32,0.00,,,0.00,,2013-01-31 22:52:00,
2013-01-31 16:01:00,61.0,32.0,30.14,SW,233,4.0,8.0,33,0.00,,,0.00,,2013-01-31 23:01:00,
2013-01-31 16:11:00,60.0,32.0,30.14,West,259,4.0,8.0,34,0.00,,,0.00,,2013-01-31 23:11:00,
2013-01-31 16:21:00,60.0,32.0,30.14,West,259,4.0,8.0,34,0.00,,,0.00,,2013-01-31 23:21:00,
2013-01-31 16:31:00,59.0,33.0,30.14,SW,218,4.0,6.0,37,0.00,,,0.00,,2013-01-31 23:31:00,
2013-01-31 16:41:00,59.0,33.0,30.14,SW,218,4.0,6.0,37,0.00,,,0.00,,2013-01-31 23:41:00,
2013-01-31 16:52:00,59.0,33.0,30.14,WSW,242,1.0,6.0,38,0.00,,,0.00,,2013-01-31 23:52:00,
2013-01-31 17:01:00,58.0,33.0,30.13,WSW,242,0.0,3.0,38,0.00,,,0.00,,2013-02-01 00:01:00,
2013-01-31 17:11:00,58.0,33.0,30.13,WSW,242,0.0,3.0,38,0.00,,,0.00,,2013-02-01 00:11:00,
2013-01-31 17:21:00,58.0,33.0,30.13,WSW,242,0.0,2.0,39,0.00,,,0.00,,2013-02-01 00:21:00,
2013-01-31 17:31:00,58.0,35.0,30.12,WSW,242,0.0,0.0,42,0.00,,,0.00,,2013-02-01 00:31:00,
2013-01-31 17:42:00,58.0,35.0,30.12,WSW,242,0.0,0.0,42,0.00,,,0.00,,2013-02-01 00:42:00,
2013-01-31 17:51:00,57.0,35.0,30.12,WSW,242,0.0,1.0,43,0.00,,,0.00,,2013-02-01 00:51:00,
2013-01-31 18:01:00,56.0,35.0,30.12,WSW,242,0.0,0.0,45,0.00,,,0.00,,2013-02-01 01:01:00,
2013-01-31 18:11:00,54.0,36.0,30.13,WSW,242,0.0,0.0,51,0.00,,,0.00,,2013-02-01 01:11:00,
2013-01-31 18:21:00,54.0,36.0,30.13,WSW,242,0.0,0.0,51,0.00,,,0.00,,2013-02-01 01:21:00,
2013-01-31 18:31:00,51.0,35.0,30.14,WSW,242,0.0,0.0,55,0.00,,,0.00,,2013-02-01 01:31:00,
2013-01-31 18:41:00,51.0,35.0,30.14,WSW,242,0.0,0.0,55,0.00,,,0.00,,2013-02-01 01:41:00,
2013-01-31 18:52:00,50.0,35.0,30.14,WSW,242,0.0,0.0,57,0.00,,,0.00,,2013-02-01 01:52:00,
2013-01-31 19:01:00,49.0,36.0,30.15,WSW,242,0.0,0.0,61,0.00,,,0.00,,2013-02-01 02:01:00,
2013-01-31 19:11:00,49.0,36.0,30.15,WSW,242,0.0,0.0,61,0.00,,,0.00,,2013-02-01 02:11:00,
2013-01-31 19:21:00,48.0,37.0,30.15,WSW,242,0.0,1.0,65,0.00,,,0.00,,2013-02-01 02:21:00,
2013-01-31 19:31:00,47.0,37.0,30.16,SW,231,0.0,1.0,67,0.00,,,0.00,,2013-02-01 02:31:00,
2013-01-31 19:41:00,47.0,37.0,30.16,SW,231,0.0,1.0,67,0.00,,,0.00,,2013-02-01 02:41:00,
2013-01-31 19:52:00,46.0,36.0,30.16,SW,231,0.0,0.0,69,0.00,,,0.00,,2013-02-01 02:52:00,
2013-01-31 20:01:00,46.0,37.0,30.17,SW,231,0.0,2.0,71,0.00,,,0.00,,2013-02-01 03:01:00,
2013-01-31 20:11:00,46.0,37.0,30.17,SW,231,0.0,2.0,71,0.00,,,0.00,,2013-02-01 03:11:00,
2013-01-31 20:21:00,46.0,36.0,30.17,SE,143,0.0,2.0,68,0.00,,,0.00,,2013-02-01 03:21:00,
2013-01-31 20:32:00,46.0,36.0,30.17,SE,143,0.0,0.0,68,0.00,,,0.00,,2013-02-01 03:32:00,
2013-01-31 20:41:00,46.0,36.0,30.17,SE,143,0.0,0.0,68,0.00,,,0.00,,2013-02-01 03:41:00,
2013-01-31 20:52:00,45.0,36.0,30.16,SE,143,0.0,2.0,71,0.00,,,0.00,,2013-02-01 03:52:00,
2013-01-31 21:01:00,45.0,36.0,30.15,SE,143,0.0,0.0,70,0.00,,,0.00,,2013-02-01 04:01:00,
2013-01-31 21:11:00,43.0,35.0,30.15,SE,139,1.0,2.0,73,0.00,,,0.00,,2013-02-01 04:11:00,
2013-01-31 21:21:00,43.0,35.0,30.15,SE,139,1.0,2.0,73,0.00,,,0.00,,2013-02-01 04:21:00,
2013-01-31 21:31:00,43.0,35.0,30.14,SE,139,0.0,1.0,74,0.00,,,0.00,,2013-02-01 04:31:00,
2013-01-31 21:41:00,43.0,35.0,30.14,SE,139,0.0,1.0,74,0.00,,,0.00,,2013-02-01 04:41:00,
2013-01-31 21:51:00,41.0,34.0,30.14,SE,139,0.0,1.0,77,0.00,,,0.00,,2013-02-01 04:51:00,
2013-01-31 22:03:00,40.0,34.0,30.15,SE,139,0.0,3.0,79,0.00,,,0.00,,2013-02-01 05:03:00,
2013-01-31 22:11:00,40.0,34.0,30.15,SE,139,0.0,3.0,79,0.00,,,0.00,,2013-02-01 05:11:00,
2013-01-31 22:22:00,41.0,35.0,30.16,SE,139,0.0,1.0,78,0.00,,,0.00,,2013-02-01 05:22:00,
2013-01-31 22:31:00,40.0,34.0,30.17,SE,138,0.0,1.0,80,0.00,,,0.00,,2013-02-01 05:31:00,
2013-01-31 22:41:00,40.0,34.0,30.17,SE,138,0.0,1.0,80,0.00,,,0.00,,2013-02-01 05:41:00,
2013-01-31 22:52:00,40.0,34.0,30.17,East,93,1.0,3.0,80,0.00,,,0.00,,2013-02-01 05:52:00,
2013-01-31 23:02:00,40.0,34.0,30.18,East,93,0.0,2.0,78,0.00,,,0.00,,2013-02-01 06:02:00,
2013-01-31 23:11:00,40.0,34.0,30.18,East,93,0.0,2.0,78,0.00,,,0.00,,2013-02-01 06:11:00,
2013-01-31 23:21:00,40.0,34.0,30.19,East,91,2.0,3.0,79,0.00,,,0.00,,2013-02-01 06:21:00,
2013-01-31 23:31:00,41.0,34.0,30.18,East,91,0.0,1.0,77,0.00,,,0.00,,2013-02-01 06:31:00,
2013-01-31 23:41:00,41.0,34.0,30.18,East,91,0.0,1.0,77,0.00,,,0.00,,2013-02-01 06:41:00,
2013-01-31 23:51:00,40.0,34.0,30.19,East,91,1.0,2.0,79,0.00,,,0.00,,2013-02-01 06:51:00,